Station: COOBER PEDY AWS

  Atmospheric Gas Attenuation - ITU Rec 676-11   --------------- db/100km ---------------
Date Time Temp RH % AH g/m3 Dew Point Wind Direction Speed kph Gust kph Barometer mB Rainfall Since 9am 24GHz 47GHz 76GHz 122GHz 134GHz 241GHz
17 02:00 7.5 51 4.08 -2 19 20 1021.3 0 10.2 20.8 25.3 65.6 47.6 159.2
17 01:50 8 50 4.14 -1.8 20 20 1021.3 0 10.3 20.8 25.4 65.8 48.0 160.7
17 01:40 8 50 4.14 -1.8 20 22 1021.3 0 10.3 20.8 25.4 65.8 48.0 160.7
17 01:30 7.9 50 4.11 -1.9 20 20 1021.4 0 10.2 20.8 25.3 65.6 47.7 159.7
17 01:20 8 51 4.22 -1.5 20 20 1021.3 0 10.5 20.9 25.7 66.5 49.0 164.1
17 01:10 7.5 51 4.08 -2 19 19 1021.4 0 10.2 20.8 25.3 65.6 47.6 159.2
17 01:00 7.7 51 4.14 -1.8 17 17 1021.7 0 10.3 20.9 25.5 66.0 48.2 161.4
17 00:50 8 50 4.14 -1.8 17 17 1021.8 0 10.3 20.8 25.4 65.8 48.0 160.8
17 00:40 8.5 50 4.27 -1.3 19 19 1021.9 0 10.6 20.9 25.7 66.7 49.3 165.3
17 00:30 8.4 49 4.16 -1.7 17 17 1022.2 0 10.3 20.8 25.4 65.7 48.0 160.9
17 00:20 8.9 49 4.29 -1.2 13 15 1022.4 0 10.6 20.8 25.7 66.6 49.3 165.4
17 00:10 8.8 49 4.27 -1.3 13 15 1022.3 0 10.6 20.8 25.7 66.4 49.1 164.8
17 00:00 9.1 47 4.17 -1.6 13 17 1022.4 0 10.3 20.6 25.2 65.2 47.7 160.0
16 23:50 9.9 46 4.3 -1.2 15 17 1022.5 0 10.6 20.6 25.4 65.8 48.8 163.8
16 23:40 9.9 47 4.39 -0.9 17 17 1022.5 0 10.8 20.8 25.7 66.7 49.9 167.6
16 23:30 9.6 48 4.4 -0.9 13 17 1022.6 0 10.8 20.9 25.9 67.1 50.2 168.6
16 23:20 10.2 47 4.47 -0.6 15 17 1022.6 0 10.9 20.8 25.9 67.2 50.6 170.3
16 23:10 10.2 47 4.47 -0.6 17 17 1022.5 0 10.9 20.8 25.9 67.2 50.6 170.3
16 23:00 10.4 48 4.63 -0.1 17 19 1022.5 0 11.3 21.0 26.4 68.6 52.4 176.5
16 22:50 10.5 48 4.66 0 17 19 1022.5 0 11.3 21.0 26.5 68.8 52.7 177.5
16 22:40 10.6 48 4.69 0.1 19 19 1022.6 0 11.4 21.0 26.6 69.0 53.0 178.6
16 22:30 10.5 48 4.66 0 19 20 1022.7 0 11.3 21.0 26.5 68.8 52.7 177.6
16 22:20 10.3 49 4.69 0.1 19 19 1022.8 0 11.4 21.1 26.7 69.3 53.2 179.3
16 22:10 10 50 4.7 0.1 17 19 1022.7 0 11.4 21.2 26.8 69.6 53.5 180.3
16 22:00 9.7 50 4.61 -0.2 17 17 1022.5 0 11.3 21.1 26.6 69.0 52.6 177.2
16 21:50 10.3 47 4.5 -0.5 15 17 1022.6 0 11.0 20.8 26.0 67.4 50.9 171.3
16 21:40 10.9 48 4.78 0.3 15 15 1022.6 0 11.6 21.1 26.8 69.6 53.8 181.7
16 21:30 10.6 48 4.69 0.1 13 15 1022.7 0 11.4 21.0 26.6 69.0 53.0 178.6
16 21:20 10.6 48 4.69 0.1 13 15 1022.7 0 11.4 21.0 26.6 69.0 53.0 178.6
16 21:10 11 46 4.61 -0.2 13 13 1022.7 0 11.2 20.8 26.2 67.9 51.8 174.4
16 21:00 11.4 46 4.72 0.2 15 15 1022.7 0 11.4 20.9 26.5 68.6 52.8 178.1
16 20:50 11.8 45 4.74 0.3 15 15 1022.7 0 11.5 20.8 26.4 68.5 52.8 178.0
16 20:40 11.9 44 4.66 0.1 15 15 1022.7 0 11.3 20.7 26.1 67.6 51.8 174.5
16 20:30 12.1 43 4.61 -0.1 15 17 1022.8 0 11.2 20.6 25.8 67.0 51.1 172.1
16 20:20 12.3 42 4.56 -0.2 15 17 1022.7 0 11.1 20.5 25.6 66.4 50.4 169.6
16 20:10 12.6 41 4.54 -0.3 13 15 1022.7 0 11.0 20.4 25.4 65.9 49.9 168.2
16 20:00 12.9 41 4.62 0 15 17 1022.7 0 11.2 20.4 25.6 66.4 50.7 170.8
16 19:50 12.4 39 4.26 -1.1 15 15 1022.6 0 10.4 20.0 24.5 63.5 46.9 157.3
16 19:40 12.8 39 4.37 -0.8 13 15 1022.6 0 10.6 20.1 24.8 64.2 47.9 160.9
16 19:30 12.5 40 4.4 -0.7 13 15 1022.4 0 10.7 20.2 25.0 64.7 48.4 162.7
16 19:20 13 39 4.42 -0.6 13 13 1022.3 0 10.7 20.1 24.9 64.5 48.3 162.5
16 19:10 12.9 38 4.28 -1.1 15 15 1022.1 0 10.5 19.9 24.4 63.2 46.8 157.1
16 18:59 13.3 37 4.27 -1.1 13 15 1022 0 10.4 19.8 24.3 62.8 46.4 155.9
16 18:50 13.7 36 4.26 -1.1 13 13 1022 0 10.4 19.7 24.1 62.4 46.1 154.7
16 18:40 14 35 4.22 -1.2 13 15 1021.9 0 10.3 19.6 23.9 61.8 45.5 152.6
16 18:30 14.6 34 4.25 -1.1 13 15 1021.9 0 10.3 19.5 23.8 61.7 45.5 152.7
16 18:20 15.2 33 4.28 -0.9 13 13 1021.8 0 10.4 19.4 23.8 61.5 45.4 152.7
16 18:10 15.7 32 4.28 -0.9 11 11 1021.8 0 10.4 19.3 23.6 61.1 45.2 151.8
16 18:00 16.2 31 4.27 -0.9 13 15 1021.8 0 10.3 19.2 23.4 60.6 44.8 150.5
16 17:50 17 30 4.34 -0.7 13 13 1021.7 0 10.5 19.2 23.4 60.7 45.1 151.7
16 17:40 18 29 4.45 -0.3 15 17 1021.9 0 10.7 19.1 23.5 60.9 45.7 154.0
16 17:30 18.5 28 4.43 -0.3 13 15 1022 0 10.6 19.0 23.3 60.4 45.2 152.4
16 17:20 18.9 28 4.54 0 15 17 1021.9 0 10.8 19.0 23.6 61.0 46.2 155.7
16 17:10 19.2 28 4.62 0.3 15 17 1021.8 0 11.0 19.1 23.7 61.5 46.9 158.2
16 17:00 19.4 27 4.5 -0.1 17 20 1021.9 0 10.7 18.9 23.3 60.3 45.5 153.3
16 16:50 19.5 27 4.53 0 19 19 1021.7 0 10.8 18.9 23.4 60.5 45.7 154.2
16 16:40 19.7 27 4.58 0.2 15 17 1021.7 0 10.9 18.9 23.5 60.7 46.2 155.7
16 16:30 19.6 27 4.56 0.1 17 22 1021.8 0 10.8 18.9 23.4 60.7 46.0 155.2
16 16:20 20.1 26 4.52 0 15 17 1021.7 0 10.7 18.8 23.2 59.9 45.3 152.8
16 16:10 20.2 26 4.55 0.1 19 20 1021.7 0 10.8 18.8 23.2 60.1 45.6 153.7
16 16:00 19.9 27 4.64 0.4 19 26 1021.8 0 11.0 19.0 23.6 61.1 46.7 157.6
16 15:50 20.3 27 4.75 0.7 19 24 1021.9 0 11.2 19.0 23.8 61.8 47.6 160.9
16 15:40 20.1 27 4.69 0.5 15 19 1022 0 11.1 19.0 23.7 61.4 47.1 159.1
16 15:30 20.5 27 4.8 0.9 17 24 1022.1 0 11.3 19.1 24.0 62.1 48.0 162.4
16 15:20 19.9 27 4.64 0.4 11 11 1022.1 0 11.0 19.0 23.6 61.1 46.7 157.6
16 15:10 19.9 27 4.64 0.4 11 13 1022.4 0 11.0 19.0 23.6 61.2 46.7 157.7
16 15:00 20.3 26 4.57 0.2 11 17 1022.5 0 10.8 18.8 23.3 60.3 45.8 154.4
16 14:50 19.7 27 4.58 0.2 11 13 1022.5 0 10.9 18.9 23.5 60.8 46.2 155.8
16 14:40 19.9 27 4.64 0.4 9 11 1022.6 0 11.0 19.0 23.6 61.2 46.7 157.7
16 14:30 19.5 27 4.53 0 15 20 1022.7 0 10.8 18.9 23.4 60.5 45.8 154.4
16 14:20 20.1 27 4.69 0.5 15 17 1022.7 0 11.1 19.0 23.7 61.5 47.1 159.2
16 14:10 19.2 27 4.45 -0.2 11 13 1022.8 0 10.6 18.9 23.2 60.1 45.1 152.0
16 14:00 19.5 27 4.53 0 15 22 1022.9 0 10.8 18.9 23.4 60.6 45.8 154.4
16 13:50 19.2 27 4.45 -0.2 11 13 1023 0 10.6 18.9 23.2 60.1 45.1 152.0
16 13:40 19.2 28 4.62 0.3 13 15 1023.1 0 11.0 19.1 23.8 61.6 46.9 158.3
16 13:30 19.2 29 4.78 0.8 13 19 1023.2 0 11.3 19.3 24.3 62.9 48.6 164.3
16 13:20 18.9 28 4.54 0 11 15 1023.4 0 10.8 19.1 23.6 61.1 46.3 156.0
16 13:10 18.8 29 4.67 0.4 15 17 1023.6 0 11.1 19.3 24.1 62.3 47.7 161.0
16 13:00 18.8 29 4.67 0.4 17 22 1023.6 0 11.1 19.3 24.1 62.3 47.7 161.0
16 12:50 18.4 30 4.72 0.5 9 11 1023.9 0 11.2 19.4 24.4 63.1 48.5 163.8
16 12:40 18.3 30 4.69 0.4 9 13 1024 0 11.2 19.4 24.3 62.9 48.2 162.8
16 12:30 18.6 31 4.93 1.2 11 19 1024.2 0 11.6 19.7 25.0 64.8 50.6 171.4
16 12:20 18 32 4.91 1.1 9 11 1024.5 0 11.6 19.8 25.1 65.1 50.8 171.9
16 12:10 18.3 32 5 1.3 13 24 1024.6 0 11.8 19.9 25.3 65.7 51.6 174.7
16 12:00 17.7 33 4.98 1.2 13 20 1024.8 0 11.8 20.0 25.5 66.0 51.8 175.3
16 11:50 17.5 34 5.07 1.5 13 15 1024.9 0 12.0 20.1 25.8 67.0 52.9 179.2
16 11:40 17.3 34 5.01 1.3 15 17 1025.1 0 11.9 20.1 25.7 66.6 52.4 177.3
16 11:30 17.7 35 5.28 2.1 15 19 1025.3 0 12.4 20.4 26.5 68.7 55.1 187.0
16 11:20 17 35 5.06 1.4 13 17 1025.3 0 12.0 20.2 25.9 67.3 53.1 180.0
16 11:10 17 36 5.21 1.8 15 19 1025.5 0 12.3 20.5 26.5 68.7 54.8 185.9
16 11:00 16.1 39 5.35 2.2 15 19 1025.8 0 12.6 20.9 27.2 70.7 57.0 193.6
16 10:50 15.7 39 5.22 1.8 17 17 1025.9 0 12.3 20.8 26.9 69.9 55.9 189.3
16 10:40 15.5 40 5.29 2 15 19 1025.9 0 12.5 20.9 27.2 70.7 56.8 192.6
16 10:30 14.9 40 5.1 1.4 15 19 1026.1 0 12.1 20.8 26.8 69.5 55.0 186.4
16 10:20 14.8 41 5.19 1.7 17 17 1026.1 0 12.3 20.9 27.1 70.4 56.1 190.2
16 10:10 14.5 42 5.22 1.8 17 17 1026.1 0 12.4 21.0 27.3 70.9 56.7 192.1
16 10:00 13.9 43 5.16 1.5 15 20 1026.1 0 12.3 21.1 27.3 70.9 56.4 191.1
16 09:50 13.8 44 5.24 1.8 15 15 1026 0 12.5 21.2 27.6 71.7 57.4 194.6
16 09:40 13.1 45 5.14 1.5 17 19 1026 0 12.3 21.2 27.5 71.4 56.7 192.1
16 09:30 12.8 45 5.04 1.2 13 17 1025.9 0 12.1 21.2 27.3 70.7 55.8 188.7

Last Refresh: 17-Jul-2020 02:13:42

Most of the information presented on this site is sourced from the Bureau of Meteorology.  Copyright in all material sourced from the Bureau of Meteorology resides with the Commonwealth of Australia.